Minerva, OH (44657)

12:04 AM EDT en Octubre 17, 2017 (GMT -0400)
Minerva | | Change Station
Aviso en curso: Frost Advisory

Alt 1050 ft 40.73 °N, 81.11 °W | Updated 13 seconds ago

Despejado
Despejado
38.1 ° F
Sensación térmica 38 ° F
N
0.0
Viento Variable Viento desde SSO
Gusts 0.0 mph

Hoy
Alta -- | Baja -- ° F
--% Posibilidad de precipitaciones
Ayer
Alta -- | Baja -- ° F
Precip. -- pul
Presión 30.31 pul
Visibilidad 10.0 Millas
Nubes Despejado
Vientos helados 38 ° F
Punto de rocío 38 ° F
Humedad 99%
Precipitaciones 0.00 pul
Espesor de la nieve No disponible.
7:38 AM 6:40 PM
Creciente menguante, 7% visible
METAR KCAK 170351Z 16004KT 10SM CLR 06/01 A3029 RMK AO2 SLP263 T00610011
Presión 30.31 pul
Visibilidad 10.0 Millas
Nubes Despejado
Vientos helados 38 ° F
Punto de rocío 38 ° F
Humedad 99%
Precipitaciones 0.00 pul
Espesor de la nieve No disponible.
7:38 AM 6:40 PM
Creciente menguante, 7% visible
METAR KCAK 170351Z 16004KT 10SM CLR 06/01 A3029 RMK AO2 SLP263 T00610011

Get Your Daily Forecast Email!

Thanks for signing up!

Be on the lookout for a verification email in your inbox.

You'll start receiving severe weather alerts in your inbox..

×

10-Day Weather Forecast

Almanac

Astronomía

Oct. 17, 2017 Salida Puesta
Hora real
Crepúsculo civil
Crepúsculo náutico
Crepúsculo astronómico
Luna
Horas de luz
Horas de luz
Tomorrow will be .
, % of the Moon is Illuminated

Extremos de hoy

Máximos del estado Bajos del estado

Community

WunderPhotos

Category 6

Welcome to Category 6. This is the collective home for Weather Underground's featured writeups by Dr. Jeff Masters (right), Bob Henson (left), Chris Burt, and other regular contributors.

Nearby

Calidad del aire

  Calidad del aire Índice AQ Contaminante
Not available.

Grosos de nieve

Estación Profundido Altura

Actividad de terremotos

Ciudad Distance Mag. Tiempo y dato
Magnitud mínima muestra es 2,5.

Temperaturas de aguas costeras

Lugar Temperatura

Stations

Estaciones meteorológicas cercanas

Ubicación de la estación Temp. Vientos helados Punto de rocío Humedad Viento Precip. Alt Actualizado Tipo
                   

Watches & Warnings

Frost Advisory
Issued: 9:22 PM EDT Oct. 16, 2017 – National Weather Service

... Frost advisory remains in effect from 2 am to 10 am EDT
Tuesday...

* temperatures... 32 to 36 degrees.

* Timing... late tonight into early Tuesday morning

* impacts... unprotected sensitive vegetation may be damaged.

Precautionary/preparedness actions...

A frost advisory is issued when frost is expected during the
growing season. Those with agricultural interests are advised to
harvest or protect tender vegetation. Potted plants outdoors
should be covered or brought inside.